Latest Weather Observations for Norfolk Island

IDN60801

Issued at 11:32 am EST Saturday 4 July 2015 (issued every 30 minutes, with the page automatically refreshed every 10 minutes)

About weather observations | Map of weather stations | Latest weather observations for NSW | Other Formats
Station Details ID: 200288 Name: NORFOLK ISLAND AERO Lat: -29.04 Lon: 167.94 Height: 111.73 m
Data from the previous 72 hours. | See also: Recent months at Norfolk Island
Date/Time
EST
Temp
°C
App
Temp
°C
Dew
Point
Rel
Hum
%
Delta-T
°C
Wind Press
QNH
hPa
Press
MSL
hPa
Rain
since 9 am
mm
Dir
 
Spd
km/h
Gust
km/h
Spd
kts
Gust
kts
04/11:05am 15.7 10.1 12.1 79 2.0 SSW 33 52 18 28 1011.6 - 0.8
04/11:00am 16.7 10.9 11.6 72 2.8 SSW 33 48 18 26 1011.6 - 0.8
04/10:30am 16.6 10.2 12.1 75 2.5 SSW 37 59 20 32 1011.6 1011.5 0.8
04/10:00am 16.5 10.2 12.3 76 2.3 SSW 37 57 20 31 1011.5 - 0.8
04/09:30am 16.7 10.4 11.0 69 3.1 SSW 35 57 19 31 1011.3 - 0.8
04/09:09am 16.2 11.2 13.4 83 1.6 SSW 32 50 17 27 1011.1 - 0.8
04/09:00am 15.5 9.5 13.4 87 1.2 SW 37 52 20 28 1011.1 - 0.8
04/08:38am 16.3 10.4 12.5 78 2.1 SW 35 54 19 29 1010.8 - 0.6
04/08:30am 16.6 10.7 10.6 67 3.2 SW 32 46 17 25 1010.8 - 0.6
04/08:19am 15.9 11.4 12.7 81 1.8 SW 28 48 15 26 1010.6 - 0.6
04/08:00am 15.6 10.3 12.5 82 1.7 WSW 32 46 17 25 1010.1 - 0.4
04/07:30am 16.3 11.1 11.7 74 2.5 SW 30 41 16 22 1009.7 1009.5 8.0
04/07:04am 16.1 9.7 10.7 70 2.9 SSW 35 54 19 29 1009.2 - 8.0
04/07:00am 16.0 9.0 10.1 68 3.1 SSW 37 54 20 29 1009.1 - 8.0
04/06:30am 15.5 9.5 10.2 70 2.8 SW 32 50 17 27 1008.6 - 8.0
04/06:13am 15.2 8.6 10.1 71 2.7 SW 35 54 19 29 1008.2 - 8.0
04/06:00am 15.0 8.8 11.5 79 1.9 SW 35 50 19 27 1008.0 - 8.0
04/05:35am 14.9 8.8 10.6 75 2.3 WSW 33 52 18 28 1007.5 - 8.0
04/05:30am 14.4 9.4 12.2 87 1.2 WSW 30 43 16 23 1007.5 - 8.0
04/05:15am 14.7 9.1 11.4 80 1.8 SW 32 56 17 30 1007.3 - 7.6
04/05:00am 15.2 9.7 10.7 74 2.4 WSW 30 44 16 24 1007.1 - 7.6
04/04:30am 14.8 10.5 10.9 77 2.1 WSW 24 35 13 19 1006.8 1006.6 7.6
04/04:00am 15.4 9.8 10.1 70 2.8 WSW 30 43 16 23 1006.5 - 7.6
04/03:30am 14.9 9.9 9.5 70 2.8 SW 26 37 14 20 1006.3 - 7.6
04/03:00am 14.5 10.8 10.1 75 2.3 WSW 20 35 11 19 1006.2 - 7.6
04/02:30am 14.6 10.3 10.9 78 2.0 WSW 24 37 13 20 1006.2 - 7.6
04/02:14am 14.3 9.5 11.5 83 1.5 WSW 28 46 15 25 1006.4 - 7.6
04/02:00am 14.6 11.2 11.3 80 1.8 SW 20 33 11 18 1006.3 - 7.4
04/01:30am 14.2 10.7 10.8 80 1.8 W 20 32 11 17 1006.2 1006.0 7.4
04/01:24am 14.4 11.2 11.8 84 1.4 W 20 37 11 20 1006.2 - 7.4
04/01:08am 14.6 8.8 11.6 82 1.6 W 33 44 18 24 1006.4 - 7.4
04/01:07am 14.6 8.5 11.8 83 1.5 W 35 44 19 24 1006.4 - 7.4
04/01:00am 15.0 12.9 12.3 84 1.5 W 15 26 8 14 1006.3 - 6.8
04/12:30am 13.0 12.8 11.7 92 0.7 WSW 4 7 2 4 1006.5 - 6.8
04/12:14am 13.4 12.2 11.5 88 1.0 WNW 9 11 5 6 1006.7 - 6.8
04/12:00am 14.3 10.8 12.3 88 1.1 W 22 37 12 20 1007.0 - 6.8
 
Date/Time
EST
Temp
°C
App
Temp
°C
Dew
Point
Rel
Hum
%
Delta-T
°C
Wind Press
QNH
hPa
Press
MSL
hPa
Rain
since 9 am
mm
Dir
 
Spd
km/h
Gust
km/h
Spd
kts
Gust
kts
03/11:58pm 14.5 10.6 12.1 85 1.3 W 24 37 13 20 1007.0 - 6.6
03/11:30pm 15.5 11.7 11.2 75 2.3 W 22 33 12 18 1007.2 - 5.6
03/11:01pm 14.5 11.1 10.7 78 2.0 W 19 30 10 16 1007.3 - 5.6
03/11:00pm 14.4 11.1 10.8 79 1.9 W 19 26 10 14 1007.3 - 5.6
03/10:47pm 14.4 8.7 11.8 84 1.4 W 33 57 18 31 1007.4 - 5.6
03/10:40pm 15.0 8.2 12.1 83 1.6 W 39 57 21 31 1007.5 - 5.2
03/10:30pm 16.6 13.7 11.1 70 3.0 W 17 28 9 15 1007.4 1007.2 5.2
03/10:00pm 16.1 13.4 11.7 75 2.4 WNW 17 20 9 11 1007.5 - 5.2
03/09:30pm 16.0 13.0 11.8 76 2.3 W 19 26 10 14 1007.7 - 5.2
03/09:00pm 15.2 12.0 11.3 77 2.1 WNW 19 26 10 14 1008.2 - 5.2
03/08:30pm 15.4 13.0 12.7 84 1.5 WSW 17 24 9 13 1008.3 - 5.0
03/08:00pm 15.9 14.3 12.9 82 1.7 W 13 19 7 10 1008.6 - 4.6
03/07:30pm 15.7 14.6 13.0 84 1.5 WSW 11 17 6 9 1008.4 1008.2 4.6
03/07:00pm 15.9 13.0 12.9 82 1.7 SW 20 30 11 16 1008.3 - 4.6
03/06:50pm 16.1 12.5 13.1 82 1.7 SW 24 33 13 18 1008.5 - 4.6
03/06:30pm 16.1 11.2 13.6 85 1.4 WSW 32 46 17 25 1008.5 - 4.6
03/06:09pm 15.9 10.7 14.5 91 0.8 WSW 35 54 19 29 1008.3 - 4.6
03/06:03pm 16.0 9.2 14.4 90 0.9 WSW 43 54 23 29 1008.3 - 4.4
03/05:58pm 16.6 12.4 13.6 82 1.7 W 28 52 15 28 1008.1 - 4.0
03/05:30pm 18.0 14.2 12.5 70 3.1 W 24 33 13 18 1007.9 - 3.8
03/05:00pm 18.0 14.6 12.5 70 3.1 W 22 32 12 17 1007.9 - 3.8
03/04:30pm 17.8 14.6 13.0 73 2.7 W 22 30 12 16 1007.8 1007.6 3.8
03/04:00pm 17.9 14.2 12.7 71 2.9 W 24 35 13 19 1007.7 - 3.8
03/03:30pm 17.4 16.7 15.4 88 1.2 WNW 13 20 7 11 1007.7 - 3.8
03/03:00pm 17.7 16.5 15.0 84 1.6 NW 15 20 8 11 1007.7 - 3.8
03/02:30pm 17.7 16.8 14.8 83 1.7 NW 13 20 7 11 1007.9 - 3.8
03/02:00pm 18.6 17.6 14.7 78 2.3 NW 13 19 7 10 1008.0 - 3.8
03/01:30pm 18.6 17.4 14.1 75 2.6 WNW 13 19 7 10 1008.2 1008.0 3.8
03/01:00pm 19.1 19.0 13.9 72 3.0 W 7 13 4 7 1008.4 - 3.8
03/12:30pm 18.5 18.2 12.8 69 3.2 N 6 9 3 5 1008.8 - 3.8
03/12:00pm 16.5 16.5 14.2 86 1.3 N 7 9 4 5 1009.4 - 3.6
03/11:30am 16.6 16.9 14.9 90 1.0 NNE 7 11 4 6 1009.9 - 3.4
03/11:00am 16.7 16.4 15.5 93 0.7 NNE 11 17 6 9 1010.3 - 3.4
03/10:30am 15.9 14.6 14.7 93 0.7 NNE 15 20 8 11 1011.0 1010.9 3.4
03/10:00am 15.9 15.6 14.5 91 0.8 N 9 15 5 8 1011.9 - 3.2
03/09:30am 16.1 15.7 15.2 94 0.5 NNW 11 22 6 12 1012.4 - 2.6
03/09:00am 16.3 15.6 15.4 94 0.5 N 13 22 7 12 1012.8 - 1.2
03/08:30am 16.2 15.4 15.2 94 0.6 N 13 19 7 10 1013.0 - 0.8
03/08:00am 16.5 16.3 15.6 94 0.5 NNW 11 17 6 9 1012.8 - 0.6
03/07:52am 16.8 16.3 15.8 94 0.6 NNW 13 20 7 11 1012.9 - 0.4
03/07:46am 16.8 16.6 15.6 93 0.7 NNW 11 19 6 10 1012.9 - 0.2
03/07:30am 16.9 17.1 15.7 93 0.7 NNW 9 15 5 8 1013.2 1013.1 3.2
03/07:00am 16.5 15.6 14.9 90 0.9 N 13 22 7 12 1013.3 - 2.6
03/06:30am 16.4 15.9 14.8 90 0.9 N 11 17 6 9 1012.9 - 2.6
03/06:00am 15.9 14.4 14.3 90 0.9 N 15 26 8 14 1013.2 - 2.6
03/05:30am 16.0 14.9 14.4 90 0.9 N 13 26 7 14 1013.0 - 2.4
03/05:24am 16.0 14.9 14.4 90 0.9 N 13 20 7 11 1013.0 - 2.4
03/05:11am 16.0 14.3 14.8 93 0.7 N 17 30 9 16 1012.8 - 2.4
03/05:10am 16.0 14.3 14.8 93 0.7 N 17 30 9 16 1012.9 - 2.4
03/05:00am 16.2 14.8 14.5 90 1.0 NNW 15 19 8 10 1012.9 - 2.2
03/04:42am 17.6 16.8 15.2 86 1.4 NNW 13 26 7 14 1012.9 - 0.6
03/04:30am 18.1 16.8 14.7 80 2.0 N 15 28 8 15 1012.8 1012.7 0.0
03/04:00am 18.3 16.4 14.3 77 2.3 N 17 28 9 15 1012.7 - 0.0
03/03:30am 18.3 16.4 14.1 76 2.4 N 17 28 9 15 1012.7 - 0.0
03/03:00am 18.1 16.6 14.1 77 2.3 N 15 28 8 15 1013.2 - 0.0
03/02:30am 18.3 15.7 13.8 75 2.6 N 20 33 11 18 1013.5 - 0.0
03/02:00am 18.0 15.8 13.4 74 2.6 N 17 35 9 19 1013.8 - 0.0
03/01:30am 18.0 15.2 13.2 73 2.7 N 20 33 11 18 1014.3 1014.1 0.0
03/01:00am 18.0 15.5 13.4 74 2.6 N 19 32 10 17 1014.8 - 0.0
03/12:30am 17.9 15.4 13.5 75 2.5 N 19 28 10 15 1015.1 - 0.0
03/12:00am 17.9 15.6 12.9 72 2.8 N 17 26 9 14 1015.5 - 0.0
 
Date/Time
EST
Temp
°C
App
Temp
°C
Dew
Point
Rel
Hum
%
Delta-T
°C
Wind Press
QNH
hPa
Press
MSL
hPa
Rain
since 9 am
mm
Dir
 
Spd
km/h
Gust
km/h
Spd
kts
Gust
kts
02/11:30pm 17.8 15.4 12.8 72 2.8 N 17 32 9 17 1015.8 - 0.0
02/11:00pm 17.8 14.9 12.8 72 2.8 N 20 32 11 17 1016.2 - 0.0
02/10:30pm 17.8 14.9 12.4 70 3.0 N 19 28 10 15 1016.4 1016.2 0.0
02/10:00pm 17.8 14.2 12.0 69 3.2 N 22 33 12 18 1016.7 - 0.0
02/09:30pm 17.9 15.3 12.1 69 3.2 N 17 32 9 17 1017.1 - 0.0
02/09:00pm 17.2 14.8 12.5 74 2.6 NNE 17 28 9 15 1017.0 - 0.0
02/08:30pm 17.0 14.2 12.5 75 2.5 NNE 19 28 10 15 1017.2 - 0.0
02/08:00pm 17.7 14.0 11.5 67 3.4 N 22 32 12 17 1017.8 - 0.0
02/07:30pm 17.6 13.7 10.7 64 3.7 NNE 22 33 12 18 1017.9 1017.8 0.0
02/07:00pm 17.4 13.7 10.3 63 3.8 N 20 28 11 15 1017.8 - 0.0
02/06:30pm 17.3 13.9 10.4 64 3.7 NNE 19 32 10 17 1017.9 - 0.0
02/06:00pm 17.2 14.5 10.5 64 3.6 N 15 22 8 12 1018.0 - 0.0
02/05:30pm 17.2 14.6 10.7 65 3.5 NNE 15 24 8 13 1017.7 - 0.0
02/05:00pm 17.0 14.7 10.4 65 3.5 NNE 13 22 7 12 1017.6 - 0.0
02/04:30pm 17.0 14.6 10.2 64 3.6 NNE 13 19 7 10 1017.5 1017.3 0.0
02/04:00pm 17.0 14.5 9.6 61 3.9 NNE 13 22 7 12 1017.5 - 0.0
02/03:30pm 17.8 14.9 9.7 59 4.3 NNE 15 24 8 13 1017.5 - 0.0
02/03:00pm 18.3 14.5 8.9 54 4.9 NNE 19 30 10 16 1017.3 - 0.0
02/02:30pm 18.6 14.7 9.3 54 4.9 NNE 20 33 11 18 1017.3 - 0.0
02/02:00pm 18.7 15.4 10.8 60 4.3 NNE 19 30 10 16 1017.6 - 0.0
02/01:30pm 18.9 15.3 10.6 58 4.5 NNE 20 28 11 15 1017.6 1017.4 0.0
02/01:00pm 19.0 15.2 9.1 52 5.2 NNE 19 28 10 15 1017.7 - 0.0
02/12:30pm 19.0 14.9 8.7 51 5.4 NNE 20 30 11 16 1017.9 - 0.0
02/12:00pm 18.7 14.6 8.7 52 5.2 NNE 20 32 11 17 1018.2 - 0.0
02/11:30am 19.0 14.7 9.4 53 5.1 NNE 22 32 12 17 1018.8 - 0.0
02/11:00am 18.9 14.8 8.5 51 5.4 NNE 20 32 11 17 1019.5 - 0.0
02/10:30am 18.8 15.6 10.0 56 4.7 NE 17 28 9 15 1020.2 1020.1 0.0
02/10:00am 19.1 16.1 10.8 58 4.5 NNE 17 26 9 14 1020.6 - 0.0
02/09:30am 18.3 14.6 10.3 59 4.3 NE 20 26 11 14 1021.0 - 0.0
02/09:00am 18.2 14.9 9.7 57 4.5 NE 17 24 9 13 1021.4 - 0.0
02/08:30am 17.7 14.3 10.4 62 3.9 NE 19 24 10 13 1021.4 - 0.0
02/08:00am 17.6 14.6 10.5 63 3.8 NE 17 26 9 14 1021.4 - 0.0
02/07:30am 17.2 14.6 10.7 65 3.5 NE 15 20 8 11 1021.4 1021.3 0.0
02/07:00am 14.9 13.4 10.7 76 2.2 ENE 9 13 5 7 1021.3 - 0.0
02/06:30am 14.8 12.8 10.2 74 2.4 ENE 11 15 6 8 1021.1 - 0.0
02/06:00am 13.3 11.1 9.2 76 2.1 ENE 11 15 6 8 1020.8 - 0.0
02/05:30am 14.0 12.1 9.1 72 2.5 ENE 9 11 5 6 1020.7 - 0.0
02/05:00am 12.2 9.5 8.8 80 1.7 ENE 13 13 7 7 1020.5 - 0.0
02/04:30am 12.9 10.6 8.9 76 2.0 ENE 11 11 6 6 1020.5 1020.4 0.0
02/04:00am 13.1 10.7 8.7 74 2.2 ENE 11 11 6 6 1020.5 - 0.0
02/03:30am 13.5 11.2 9.0 74 2.3 ENE 11 11 6 6 1020.5 - 0.0
02/03:00am 12.7 10.4 9.1 79 1.8 E 11 13 6 7 1020.7 - 0.0
02/02:30am 14.8 12.1 9.1 68 2.9 NE 13 15 7 8 1021.2 - 0.0
02/02:00am 14.3 12.0 9.0 70 2.7 ENE 11 15 6 8 1021.4 - 0.0
02/01:30am 14.8 11.8 9.4 70 2.8 NE 15 19 8 10 1021.5 1021.4 0.0
02/01:00am 14.4 11.4 9.1 70 2.7 NE 15 17 8 9 1022.1 - 0.0
02/12:30am 14.0 10.7 8.0 67 3.0 ENE 15 17 8 9 1022.5 - 0.0
02/12:00am 11.9 8.8 7.3 73 2.2 ENE 13 15 7 8 1022.8 - 0.0
 
Date/Time
EST
Temp
°C
App
Temp
°C
Dew
Point
Rel
Hum
%
Delta-T
°C
Wind Press
QNH
hPa
Press
MSL
hPa
Rain
since 9 am
mm
Dir
 
Spd
km/h
Gust
km/h
Spd
kts
Gust
kts
01/11:30pm 13.3 10.6 7.4 67 2.9 NE 11 13 6 7 1023.4 - 0.0
01/11:00pm 14.5 11.7 6.9 60 3.7 NE 11 13 6 7 1023.7 - 0.0
01/10:30pm 13.4 11.4 7.0 65 3.1 E 7 9 4 5 1023.9 1023.7 0.0
01/10:00pm 13.3 10.5 6.9 65 3.1 ENE 11 15 6 8 1023.9 - 0.0
01/09:30pm 12.7 10.4 7.4 70 2.6 ENE 9 11 5 6 1023.9 - 0.0
01/09:00pm 13.6 11.2 7.0 64 3.2 ENE 9 13 5 7 1023.9 - 0.0
01/08:30pm 12.6 10.3 7.5 71 2.5 E 9 13 5 7 1024.1 - 0.0
01/08:00pm 13.6 11.6 7.0 64 3.2 ENE 7 9 4 5 1024.3 - 0.0
01/07:30pm 13.1 11.2 7.4 68 2.8 ENE 7 9 4 5 1024.2 1024.0 0.0
01/07:00pm 13.9 11.5 7.1 63 3.3 ENE 9 9 5 5 1024.0 - 0.0
01/06:30pm 13.2 10.9 7.5 68 2.8 ENE 9 9 5 5 1023.8 - 0.0
01/06:00pm 13.5 11.3 7.8 68 2.8 ENE 9 9 5 5 1023.8 - 0.0
01/05:30pm 13.4 11.3 8.4 72 2.5 E 9 11 5 6 1023.7 - 0.0
01/05:00pm 13.6 11.1 8.4 71 2.6 ENE 11 13 6 7 1023.5 - 0.0
01/04:30pm 14.1 12.5 8.8 70 2.7 E 7 7 4 4 1023.4 1023.2 0.0
01/04:00pm 14.8 12.9 8.9 68 3.0 E 9 11 5 6 1023.6 - 0.0
01/03:30pm 16.1 13.7 8.7 61 3.8 E 11 15 6 8 1023.7 - 0.0
01/03:00pm 17.0 14.5 8.4 57 4.4 E 11 17 6 9 1023.9 - 0.0
01/02:30pm 16.4 13.8 7.9 57 4.3 ESE 11 19 6 10 1024.1 - 0.0
01/02:00pm 17.6 14.3 8.2 54 4.8 SE 15 19 8 10 1024.2 - 0.0
01/01:30pm 17.6 15.2 8.7 56 4.6 ESE 11 15 6 8 1024.1 1023.9 0.0
01/01:00pm 17.4 14.6 8.4 55 4.6 ESE 13 17 7 9 1024.4 - 0.0
01/12:30pm 16.4 13.9 8.1 58 4.2 SE 11 15 6 8 1024.6 - 0.0
01/12:00pm 16.5 13.2 8.2 58 4.2 SE 15 20 8 11 1024.9 - 0.0
01/11:30am 16.7 13.2 8.7 59 4.1 SSE 17 24 9 13 1025.3 - 0.0

Other Formats:

Comma delimited format used in spreadsheet applications
http://www.bom.gov.au/fwo/IDN60801/IDN60801.94996.axf

JavaScript Object Notation format (JSON) in row-major order
http://www.bom.gov.au/fwo/IDN60801/IDN60801.94996.json